sensor_id;sensor_type;location;lat;lon;timestamp;pressure;altitude;pressure_sealevel;temperature;humidity
55757;BME280;41676;44.610;44.078;2022-11-24T00:01:45;100468.69;;;4.66;97.66
55757;BME280;41676;44.610;44.078;2022-11-24T00:06:46;100401.03;;;4.35;97.77
55757;BME280;41676;44.610;44.078;2022-11-24T00:11:46;100380.91;;;4.46;97.23
55757;BME280;41676;44.610;44.078;2022-11-24T00:16:47;100342.09;;;4.38;97.49
55757;BME280;41676;44.610;44.078;2022-11-24T00:21:48;100401.31;;;4.74;96.90
55757;BME280;41676;44.610;44.078;2022-11-24T00:26:49;100435.22;;;5.19;96.87
55757;BME280;41676;44.610;44.078;2022-11-24T00:31:50;100448.25;;;5.42;96.65
55757;BME280;41676;44.610;44.078;2022-11-24T00:36:51;100431.63;;;5.51;96.35
55757;BME280;41676;44.610;44.078;2022-11-24T00:41:51;100444.00;;;5.60;96.15
55757;BME280;41676;44.610;44.078;2022-11-24T00:46:52;100449.31;;;5.70;95.82
55757;BME280;41676;44.610;44.078;2022-11-24T00:52:28;100441.03;;;5.84;95.59
55757;BME280;41676;44.610;44.078;2022-11-24T00:57:28;100442.22;;;5.70;95.47
55757;BME280;41676;44.610;44.078;2022-11-24T01:02:29;100438.03;;;5.58;95.43
55757;BME280;41676;44.610;44.078;2022-11-24T01:07:30;100447.00;;;5.46;95.97
55757;BME280;41676;44.610;44.078;2022-11-24T01:12:31;100453.91;;;5.37;96.32
55757;BME280;41676;44.610;44.078;2022-11-24T01:23:40;100434.16;;;5.22;96.42
55757;BME280;41676;44.610;44.078;2022-11-24T01:28:42;100421.50;;;5.16;95.98
55757;BME280;41676;44.610;44.078;2022-11-24T01:33:43;100436.50;;;5.25;96.00
55757;BME280;41676;44.610;44.078;2022-11-24T01:38:44;100430.44;;;5.03;96.52
55757;BME280;41676;44.610;44.078;2022-11-24T01:43:58;100422.09;;;4.98;97.03
55757;BME280;41676;44.610;44.078;2022-11-24T01:55:20;100432.38;;;4.80;96.74
55757;BME280;41676;44.610;44.078;2022-11-24T02:00:23;100435.47;;;4.65;96.49
55757;BME280;41676;44.610;44.078;2022-11-24T02:05:32;100435.13;;;4.37;97.41
55757;BME280;41676;44.610;44.078;2022-11-24T02:10:37;100440.09;;;4.19;97.83
55757;BME280;41676;44.610;44.078;2022-11-24T02:15:38;100428.41;;;4.01;98.11
55757;BME280;41676;44.610;44.078;2022-11-24T02:20:39;100446.19;;;4.08;97.85
55757;BME280;41676;44.610;44.078;2022-11-24T02:26:10;100445.03;;;4.01;98.47
55757;BME280;41676;44.610;44.078;2022-11-24T02:31:13;100378.38;;;3.48;97.92
55757;BME280;41676;44.610;44.078;2022-11-24T02:36:14;100438.88;;;3.69;98.73
55757;BME280;41676;44.610;44.078;2022-11-24T02:41:20;100454.75;;;3.67;98.84
55757;BME280;41676;44.610;44.078;2022-11-24T02:46:21;100429.09;;;3.59;98.58
55757;BME280;41676;44.610;44.078;2022-11-24T02:51:22;100434.31;;;3.71;98.93
55757;BME280;41676;44.610;44.078;2022-11-24T02:56:24;100437.19;;;3.67;98.52
55757;BME280;41676;44.610;44.078;2022-11-24T03:01:26;100435.66;;;3.65;98.74
55757;BME280;41676;44.610;44.078;2022-11-24T03:06:26;100443.75;;;3.62;98.55
55757;BME280;41676;44.610;44.078;2022-11-24T03:11:27;100438.28;;;3.54;98.93
55757;BME280;41676;44.610;44.078;2022-11-24T03:16:28;100441.50;;;3.46;98.89
55757;BME280;41676;44.610;44.078;2022-11-24T03:21:30;100440.44;;;3.37;99.07
55757;BME280;41676;44.610;44.078;2022-11-24T03:26:32;100445.56;;;3.39;99.21
55757;BME280;41676;44.610;44.078;2022-11-24T03:31:47;100448.31;;;3.37;99.96
55757;BME280;41676;44.610;44.078;2022-11-24T03:36:48;100448.19;;;3.28;99.38
55757;BME280;41676;44.610;44.078;2022-11-24T03:41:49;100453.09;;;3.21;99.16
55757;BME280;41676;44.610;44.078;2022-11-24T03:46:50;100359.88;;;2.70;99.02
55757;BME280;41676;44.610;44.078;2022-11-24T03:51:51;100428.72;;;3.08;99.79
55757;BME280;41676;44.610;44.078;2022-11-24T03:56:52;100443.41;;;3.10;99.13
55757;BME280;41676;44.610;44.078;2022-11-24T04:07:42;100461.31;;;3.05;99.88
55757;BME280;41676;44.610;44.078;2022-11-24T04:18:27;100457.47;;;2.98;99.98
55757;BME280;41676;44.610;44.078;2022-11-24T04:23:28;100448.16;;;2.94;99.67
55757;BME280;41676;44.610;44.078;2022-11-24T04:28:29;100433.94;;;2.85;99.86
55757;BME280;41676;44.610;44.078;2022-11-24T04:33:30;100450.28;;;2.89;100.00
55757;BME280;41676;44.610;44.078;2022-11-24T04:38:31;100416.88;;;2.80;99.77
55757;BME280;41676;44.610;44.078;2022-11-24T04:43:32;100451.75;;;3.04;99.68
55757;BME280;41676;44.610;44.078;2022-11-24T04:48:33;100431.59;;;2.93;99.81
55757;BME280;41676;44.610;44.078;2022-11-24T04:53:34;100448.19;;;3.16;99.67
55757;BME280;41676;44.610;44.078;2022-11-24T04:58:35;100382.53;;;2.83;99.46
55757;BME280;41676;44.610;44.078;2022-11-24T05:03:36;100458.81;;;3.49;99.53
55757;BME280;41676;44.610;44.078;2022-11-24T05:08:36;100426.72;;;3.45;99.13
55757;BME280;41676;44.610;44.078;2022-11-24T05:13:37;100381.13;;;3.24;99.43
55757;BME280;41676;44.610;44.078;2022-11-24T05:18:38;100464.16;;;3.92;99.53
55757;BME280;41676;44.610;44.078;2022-11-24T05:23:39;100461.47;;;4.15;99.85
55757;BME280;41676;44.610;44.078;2022-11-24T05:28:40;100461.91;;;4.31;99.32
55757;BME280;41676;44.610;44.078;2022-11-24T05:33:41;100474.50;;;4.48;98.65
55757;BME280;41676;44.610;44.078;2022-11-24T05:38:42;100467.53;;;4.58;98.91
55757;BME280;41676;44.610;44.078;2022-11-24T05:43:43;100472.75;;;4.70;98.91
55757;BME280;41676;44.610;44.078;2022-11-24T05:48:44;100445.16;;;4.64;98.61
55757;BME280;41676;44.610;44.078;2022-11-24T05:53:44;100488.06;;;4.97;98.81
55757;BME280;41676;44.610;44.078;2022-11-24T05:58:45;100456.59;;;4.95;98.90
55757;BME280;41676;44.610;44.078;2022-11-24T06:03:46;100477.81;;;5.24;99.05
55757;BME280;41676;44.610;44.078;2022-11-24T06:08:52;100458.72;;;5.32;98.96
55757;BME280;41676;44.610;44.078;2022-11-24T06:13:53;100477.03;;;5.64;97.98
55757;BME280;41676;44.610;44.078;2022-11-24T06:18:54;100476.00;;;5.86;98.12
55757;BME280;41676;44.610;44.078;2022-11-24T06:23:55;100479.00;;;6.22;97.94
55757;BME280;41676;44.610;44.078;2022-11-24T06:28:57;100410.84;;;6.08;96.58
55757;BME280;41676;44.610;44.078;2022-11-24T06:33:58;100402.81;;;6.38;96.48
55757;BME280;41676;44.610;44.078;2022-11-24T06:39:00;100453.44;;;7.10;95.49
55757;BME280;41676;44.610;44.078;2022-11-24T06:44:03;100463.50;;;7.71;94.35
55757;BME280;41676;44.610;44.078;2022-11-24T06:49:04;100442.94;;;7.93;93.35
55757;BME280;41676;44.610;44.078;2022-11-24T06:54:05;100391.47;;;8.05;91.91
55757;BME280;41676;44.610;44.078;2022-11-24T06:59:06;100444.47;;;8.85;91.21
55757;BME280;41676;44.610;44.078;2022-11-24T07:04:07;100423.13;;;9.12;89.46
55757;BME280;41676;44.610;44.078;2022-11-24T07:09:09;100421.81;;;9.51;87.61
55757;BME280;41676;44.610;44.078;2022-11-24T07:14:10;100375.56;;;9.45;86.18
55757;BME280;41676;44.610;44.078;2022-11-24T07:19:11;100421.16;;;9.91;83.88
55757;BME280;41676;44.610;44.078;2022-11-24T07:24:11;100369.09;;;9.90;82.80
55757;BME280;41676;44.610;44.078;2022-11-24T07:29:12;100408.31;;;10.45;82.03
55757;BME280;41676;44.610;44.078;2022-11-24T07:34:13;100349.25;;;10.27;80.28
55757;BME280;41676;44.610;44.078;2022-11-24T07:39:14;100404.31;;;10.82;80.09
55757;BME280;41676;44.610;44.078;2022-11-24T07:44:14;100307.56;;;10.44;79.34
55757;BME280;41676;44.610;44.078;2022-11-24T07:49:16;100385.97;;;11.20;77.65
55757;BME280;41676;44.610;44.078;2022-11-24T07:54:17;100314.88;;;11.06;76.85
55757;BME280;41676;44.610;44.078;2022-11-24T07:59:18;100369.63;;;11.71;76.97
55757;BME280;41676;44.610;44.078;2022-11-24T08:04:18;100272.16;;;11.47;75.50
55757;BME280;41676;44.610;44.078;2022-11-24T08:09:19;100354.97;;;12.06;76.11
55757;BME280;41676;44.610;44.078;2022-11-24T08:14:20;100349.72;;;12.21;76.20
55757;BME280;41676;44.610;44.078;2022-11-24T08:19:21;100331.69;;;12.23;75.46
55757;BME280;41676;44.610;44.078;2022-11-24T08:24:22;100254.75;;;11.90;75.70
55757;BME280;41676;44.610;44.078;2022-11-24T08:29:28;100323.88;;;12.59;74.94
55757;BME280;41676;44.610;44.078;2022-11-24T08:34:29;100318.19;;;12.62;74.92
55757;BME280;41676;44.610;44.078;2022-11-24T08:39:30;100319.28;;;12.68;75.02
55757;BME280;41676;44.610;44.078;2022-11-24T08:44:31;100295.50;;;12.96;74.91
55757;BME280;41676;44.610;44.078;2022-11-24T08:49:33;100288.97;;;13.28;73.71
55757;BME280;41676;44.610;44.078;2022-11-24T08:54:41;100283.06;;;13.69;72.58
55757;BME280;41676;44.610;44.078;2022-11-24T08:59:44;100260.81;;;13.83;72.46
55757;BME280;41676;44.610;44.078;2022-11-24T09:04:45;100261.31;;;13.93;71.27
55757;BME280;41676;44.610;44.078;2022-11-24T09:09:46;100262.00;;;14.02;71.05
55757;BME280;41676;44.610;44.078;2022-11-24T09:14:47;100211.41;;;13.73;70.61
55757;BME280;41676;44.610;44.078;2022-11-24T09:19:48;100170.19;;;13.54;69.80
55757;BME280;41676;44.610;44.078;2022-11-24T09:24:49;100242.34;;;14.10;69.67
55757;BME280;41676;44.610;44.078;2022-11-24T09:29:49;100243.00;;;14.12;69.42
55757;BME280;41676;44.610;44.078;2022-11-24T09:34:51;100238.13;;;14.22;69.40
55757;BME280;41676;44.610;44.078;2022-11-24T09:39:52;100175.72;;;13.74;69.43
55757;BME280;41676;44.610;44.078;2022-11-24T09:50:18;100229.81;;;14.10;67.14
55757;BME280;41676;44.610;44.078;2022-11-24T09:55:37;100217.56;;;14.23;67.36
55757;BME280;41676;44.610;44.078;2022-11-24T10:00:39;100135.50;;;13.82;67.26
55757;BME280;41676;44.610;44.078;2022-11-24T10:05:41;100220.19;;;14.44;67.32
55757;BME280;41676;44.610;44.078;2022-11-24T10:11:02;100219.50;;;14.57;67.32
55757;BME280;41676;44.610;44.078;2022-11-24T10:21:50;100215.16;;;14.28;65.63
55757;BME280;41676;44.610;44.078;2022-11-24T10:27:21;100205.69;;;14.25;64.36
55757;BME280;41676;44.610;44.078;2022-11-24T10:32:34;100196.13;;;14.09;66.59
55757;BME280;41676;44.610;44.078;2022-11-24T10:37:39;100215.38;;;14.05;66.77
55757;BME280;41676;44.610;44.078;2022-11-24T10:42:42;100172.88;;;13.82;66.65
55757;BME280;41676;44.610;44.078;2022-11-24T10:47:44;100194.44;;;14.08;67.29
55757;BME280;41676;44.610;44.078;2022-11-24T10:52:55;100181.16;;;13.87;65.83
55757;BME280;41676;44.610;44.078;2022-11-24T10:58:14;100189.25;;;13.72;65.72
55757;BME280;41676;44.610;44.078;2022-11-24T11:03:18;100185.06;;;13.63;67.00
55757;BME280;41676;44.610;44.078;2022-11-24T11:08:28;100180.09;;;13.60;67.91
55757;BME280;41676;44.610;44.078;2022-11-24T11:13:30;100188.03;;;13.75;68.43
55757;BME280;41676;44.610;44.078;2022-11-24T11:18:32;100152.25;;;13.69;68.62
55757;BME280;41676;44.610;44.078;2022-11-24T11:23:34;100186.50;;;13.87;68.37
55757;BME280;41676;44.610;44.078;2022-11-24T11:28:35;100185.66;;;13.86;68.59
55757;BME280;41676;44.610;44.078;2022-11-24T11:33:36;100155.50;;;13.64;68.99
55757;BME280;41676;44.610;44.078;2022-11-24T11:38:38;100185.56;;;13.73;69.19
55757;BME280;41676;44.610;44.078;2022-11-24T11:43:39;100184.16;;;13.77;69.69
55757;BME280;41676;44.610;44.078;2022-11-24T11:48:43;100085.03;;;13.16;69.81
55757;BME280;41676;44.610;44.078;2022-11-24T12:26:12;100187.69;;;13.35;72.63
55757;BME280;41676;44.610;44.078;2022-11-24T12:43:19;100210.13;;;12.89;75.99
55757;BME280;41676;44.610;44.078;2022-11-24T12:53:36;100200.75;;;12.49;76.83
55757;BME280;41676;44.610;44.078;2022-11-24T12:58:46;100199.47;;;12.45;77.67
55757;BME280;41676;44.610;44.078;2022-11-24T13:08:51;100206.06;;;12.19;78.18
55757;BME280;41676;44.610;44.078;2022-11-24T13:14:04;100205.22;;;12.04;79.53
55757;BME280;41676;44.610;44.078;2022-11-24T13:19:07;100195.91;;;11.85;79.85
55757;BME280;41676;44.610;44.078;2022-11-24T13:41:06;100232.59;;;11.12;83.18
55757;BME280;41676;44.610;44.078;2022-11-24T13:46:08;100227.38;;;10.96;83.58
55757;BME280;41676;44.610;44.078;2022-11-24T13:51:20;100240.84;;;10.94;85.38
55757;BME280;41676;44.610;44.078;2022-11-24T13:56:31;100224.84;;;10.63;85.77
55757;BME280;41676;44.610;44.078;2022-11-24T14:01:34;100242.97;;;10.60;85.73
55757;BME280;41676;44.610;44.078;2022-11-24T14:06:48;100175.03;;;10.01;87.59
55757;BME280;41676;44.610;44.078;2022-11-24T14:12:00;100258.09;;;10.43;87.03
55757;BME280;41676;44.610;44.078;2022-11-24T14:22:17;100190.97;;;9.85;86.94
55757;BME280;41676;44.610;44.078;2022-11-24T14:27:23;100244.34;;;10.06;87.95
55757;BME280;41676;44.610;44.078;2022-11-24T14:32:25;100188.66;;;9.74;87.47
55757;BME280;41676;44.610;44.078;2022-11-24T14:37:26;100253.97;;;10.07;88.17
55757;BME280;41676;44.610;44.078;2022-11-24T14:42:27;100256.31;;;10.02;88.55
55757;BME280;41676;44.610;44.078;2022-11-24T14:53:12;100276.53;;;10.03;90.20
55757;BME280;41676;44.610;44.078;2022-11-24T15:04:18;100266.75;;;9.79;91.53
55757;BME280;41676;44.610;44.078;2022-11-24T15:09:24;100275.72;;;9.78;90.80
55757;BME280;41676;44.610;44.078;2022-11-24T15:19:34;100279.97;;;9.63;91.30
55757;BME280;41676;44.610;44.078;2022-11-24T15:24:48;100274.66;;;9.47;91.98
55757;BME280;41676;44.610;44.078;2022-11-24T15:29:49;100292.00;;;9.33;91.03
55757;BME280;41676;44.610;44.078;2022-11-24T15:34:50;100280.84;;;9.13;91.44
55757;BME280;41676;44.610;44.078;2022-11-24T15:39:51;100294.84;;;8.89;91.82
55757;BME280;41676;44.610;44.078;2022-11-24T15:44:52;100279.41;;;8.58;92.81
55757;BME280;41676;44.610;44.078;2022-11-24T15:49:53;100174.75;;;7.68;93.19
55757;BME280;41676;44.610;44.078;2022-11-24T15:54:54;100286.47;;;8.23;93.15
55757;BME280;41676;44.610;44.078;2022-11-24T15:59:56;100292.38;;;8.17;93.23
55757;BME280;41676;44.610;44.078;2022-11-24T16:04:57;100299.47;;;8.17;93.13
55757;BME280;41676;44.610;44.078;2022-11-24T16:09:57;100270.09;;;8.02;93.78
55757;BME280;41676;44.610;44.078;2022-11-24T16:14:58;100261.31;;;7.84;94.14
55757;BME280;41676;44.610;44.078;2022-11-24T16:19:59;100287.09;;;7.99;94.32
55757;BME280;41676;44.610;44.078;2022-11-24T16:25:00;100277.94;;;7.94;95.58
55757;BME280;41676;44.610;44.078;2022-11-24T16:30:04;100209.91;;;7.60;96.82
55757;BME280;41676;44.610;44.078;2022-11-24T16:35:05;100269.41;;;8.00;97.47
55757;BME280;41676;44.610;44.078;2022-11-24T16:40:07;100207.56;;;7.57;97.93
55757;BME280;41676;44.610;44.078;2022-11-24T16:45:10;100199.94;;;7.36;98.70
55757;BME280;41676;44.610;44.078;2022-11-24T16:50:12;100264.66;;;7.86;99.21
55757;BME280;41676;44.610;44.078;2022-11-24T16:55:13;100213.91;;;7.64;99.74
55757;BME280;41676;44.610;44.078;2022-11-24T17:00:14;100233.38;;;7.81;100.00
55757;BME280;41676;44.610;44.078;2022-11-24T17:05:15;100248.81;;;8.12;100.00
55757;BME280;41676;44.610;44.078;2022-11-24T17:10:16;100238.75;;;8.15;100.00
55757;BME280;41676;44.610;44.078;2022-11-24T17:21:10;100245.44;;;8.28;100.00
55757;BME280;41676;44.610;44.078;2022-11-24T17:26:12;100237.97;;;8.41;100.00
55757;BME280;41676;44.610;44.078;2022-11-24T17:31:20;100233.28;;;8.35;100.00
55757;BME280;41676;44.610;44.078;2022-11-24T17:36:22;100218.16;;;8.27;100.00
55757;BME280;41676;44.610;44.078;2022-11-24T17:41:23;100221.94;;;8.24;100.00
55757;BME280;41676;44.610;44.078;2022-11-24T17:46:24;100199.88;;;8.16;100.00
55757;BME280;41676;44.610;44.078;2022-11-24T17:57:41;100221.13;;;8.24;100.00
55757;BME280;41676;44.610;44.078;2022-11-24T18:02:42;100142.59;;;7.72;100.00
55757;BME280;41676;44.610;44.078;2022-11-24T18:07:42;100223.25;;;8.20;100.00
55757;BME280;41676;44.610;44.078;2022-11-24T18:12:43;100217.06;;;8.12;100.00
55757;BME280;41676;44.610;44.078;2022-11-24T18:17:44;100215.13;;;8.14;100.00
55757;BME280;41676;44.610;44.078;2022-11-24T18:22:45;100215.19;;;8.04;100.00
55757;BME280;41676;44.610;44.078;2022-11-24T18:27:46;100213.28;;;8.14;100.00
55757;BME280;41676;44.610;44.078;2022-11-24T18:32:47;100214.31;;;8.21;100.00
55757;BME280;41676;44.610;44.078;2022-11-24T18:37:48;100226.28;;;8.26;100.00
55757;BME280;41676;44.610;44.078;2022-11-24T18:42:48;100207.00;;;8.15;100.00
55757;BME280;41676;44.610;44.078;2022-11-24T18:47:49;100125.53;;;7.67;100.00
55757;BME280;41676;44.610;44.078;2022-11-24T18:52:51;100106.38;;;7.47;100.00
55757;BME280;41676;44.610;44.078;2022-11-24T18:57:52;100210.34;;;8.17;100.00
55757;BME280;41676;44.610;44.078;2022-11-24T19:02:53;100213.94;;;8.16;100.00
55757;BME280;41676;44.610;44.078;2022-11-24T19:07:54;100060.50;;;7.30;100.00
55757;BME280;41676;44.610;44.078;2022-11-24T19:12:55;100194.47;;;8.17;100.00
55757;BME280;41676;44.610;44.078;2022-11-24T19:23:39;100167.25;;;8.33;100.00
55757;BME280;41676;44.610;44.078;2022-11-24T19:28:40;100051.81;;;7.64;100.00
55757;BME280;41676;44.610;44.078;2022-11-24T19:33:41;100112.03;;;8.04;100.00
55757;BME280;41676;44.610;44.078;2022-11-24T19:38:49;100123.16;;;8.16;100.00
55757;BME280;41676;44.610;44.078;2022-11-24T19:43:50;100095.06;;;8.15;100.00
55757;BME280;41676;44.610;44.078;2022-11-24T19:48:56;99961.88;;;7.29;100.00
55757;BME280;41676;44.610;44.078;2022-11-24T19:53:58;100095.28;;;8.30;100.00
55757;BME280;41676;44.610;44.078;2022-11-24T20:05:15;100085.28;;;8.41;100.00
55757;BME280;41676;44.610;44.078;2022-11-24T20:10:16;100064.25;;;8.40;100.00
55757;BME280;41676;44.610;44.078;2022-11-24T20:15:17;100076.50;;;8.49;100.00
55757;BME280;41676;44.610;44.078;2022-11-24T20:20:18;100089.78;;;8.57;100.00
55757;BME280;41676;44.610;44.078;2022-11-24T20:25:19;100053.34;;;8.43;100.00
55757;BME280;41676;44.610;44.078;2022-11-24T20:30:19;100093.63;;;8.71;100.00
55757;BME280;41676;44.610;44.078;2022-11-24T20:35:20;100112.22;;;8.96;100.00
55757;BME280;41676;44.610;44.078;2022-11-24T20:40:21;100104.75;;;8.99;100.00
55757;BME280;41676;44.610;44.078;2022-11-24T20:45:22;100108.94;;;9.10;100.00
55757;BME280;41676;44.610;44.078;2022-11-24T20:50:22;99999.78;;;8.74;100.00
55757;BME280;41676;44.610;44.078;2022-11-24T20:55:23;100075.31;;;9.35;100.00
55757;BME280;41676;44.610;44.078;2022-11-24T21:00:24;100097.16;;;9.45;100.00
55757;BME280;41676;44.610;44.078;2022-11-24T21:05:25;100071.16;;;9.41;100.00
55757;BME280;41676;44.610;44.078;2022-11-24T21:10:26;100084.06;;;9.60;100.00
55757;BME280;41676;44.610;44.078;2022-11-24T21:15:27;100085.38;;;9.72;100.00
55757;BME280;41676;44.610;44.078;2022-11-24T21:20:28;100063.50;;;9.70;100.00
55757;BME280;41676;44.610;44.078;2022-11-24T21:25:29;100062.63;;;9.78;100.00
55757;BME280;41676;44.610;44.078;2022-11-24T21:30:32;100068.78;;;9.78;100.00
55757;BME280;41676;44.610;44.078;2022-11-24T21:35:34;100027.69;;;9.66;100.00
55757;BME280;41676;44.610;44.078;2022-11-24T21:40:36;100041.41;;;9.78;100.00
55757;BME280;41676;44.610;44.078;2022-11-24T21:45:36;99975.88;;;9.39;100.00
55757;BME280;41676;44.610;44.078;2022-11-24T21:50:37;100018.19;;;9.80;100.00
55757;BME280;41676;44.610;44.078;2022-11-24T21:55:38;100010.44;;;9.78;100.00
55757;BME280;41676;44.610;44.078;2022-11-24T22:00:39;99996.38;;;9.70;100.00
55757;BME280;41676;44.610;44.078;2022-11-24T22:05:39;99994.34;;;9.72;100.00
55757;BME280;41676;44.610;44.078;2022-11-24T22:10:40;99985.69;;;9.78;100.00
55757;BME280;41676;44.610;44.078;2022-11-24T22:15:41;99981.09;;;9.72;100.00
55757;BME280;41676;44.610;44.078;2022-11-24T22:20:42;99977.25;;;9.74;100.00
55757;BME280;41676;44.610;44.078;2022-11-24T22:25:42;99977.78;;;9.70;100.00
55757;BME280;41676;44.610;44.078;2022-11-24T22:30:43;99994.19;;;9.73;100.00
55757;BME280;41676;44.610;44.078;2022-11-24T22:35:54;99997.66;;;9.82;100.00
55757;BME280;41676;44.610;44.078;2022-11-24T22:41:05;100007.03;;;9.93;100.00
55757;BME280;41676;44.610;44.078;2022-11-24T22:46:10;99944.53;;;9.51;100.00
55757;BME280;41676;44.610;44.078;2022-11-24T22:51:13;99994.16;;;9.81;100.00
55757;BME280;41676;44.610;44.078;2022-11-24T22:56:15;100025.44;;;9.94;100.00
55757;BME280;41676;44.610;44.078;2022-11-24T23:01:18;100009.06;;;9.82;100.00
55757;BME280;41676;44.610;44.078;2022-11-24T23:06:22;100007.72;;;9.87;100.00
55757;BME280;41676;44.610;44.078;2022-11-24T23:11:33;100020.47;;;9.99;100.00
55757;BME280;41676;44.610;44.078;2022-11-24T23:16:34;100018.75;;;10.06;100.00
55757;BME280;41676;44.610;44.078;2022-11-24T23:21:36;99957.56;;;9.69;100.00
55757;BME280;41676;44.610;44.078;2022-11-24T23:26:40;100013.63;;;10.05;100.00
55757;BME280;41676;44.610;44.078;2022-11-24T23:31:41;100007.31;;;10.14;100.00
55757;BME280;41676;44.610;44.078;2022-11-24T23:48:53;100002.94;;;10.21;100.00
55757;BME280;41676;44.610;44.078;2022-11-24T23:53:54;99912.97;;;9.72;100.00
55757;BME280;41676;44.610;44.078;2022-11-24T23:58:55;99875.25;;;9.54;100.00
